Terminal Aerodrome Forecast
Issued by NWS

Home | Current Version | Previous Version | Text Only | Print | Product List | Glossary On
Versions: 1 2 3 4 5 6 7 8 9 10 11 12 13 14 15 16 17 18 19 20 21 22 23
000
FTUS43 KDLH 240500
TAFBRD
TAF
KBRD 240520Z 2406/2506 18007KT P6SM VCSH OVC060
     FM240800 16011KT P6SM VCSH SCT025 OVC050
     FM241200 18012KT P6SM VCSH OVC015
     FM241700 18011KT P6SM SCT015 OVC040
     FM250100 16006KT P6SM SCT040=

USA.gov is the U.S. government's official web portal to all federal, state and local government web resources and services.